Airfield :
LOGIN :

Register | Disclaimer

   EN    FR    IT 

 










Legend :    VFR   Marginal VFR   IFR   Intensive IFR   Very Intensive IFR
Visi :
Ceiling :
>= 8 km
>= 3000ft
5 to 8 km
1000 to 3000 ft
1500m to 5 km
500 to 1000 ft
800 to 1500m
200 to 500 ft
< 800m
< 200 ft
Symbols :   Thunderstorms  Fog  Heavy snow  Heavy precipitations  Wind > 20 kt
SIGMETs :     Misc.  Thunderstorms  Icing  Turbulence  Mountain Waves  Volcanic Ashes







- Airport Elevation : 412 ft
- IATA code : ORE
- Download approach charts


LFOJ - Orleans

CURRENT METAR :
  • 181530Z AUTO 26006KT 9999 FEW034/// BKN100/// OVC120/// ///TCU 22/17 Q1016 BECMG NSC

EXPIRED METARs :
  • 181500Z AUTO 29011KT 9999 FEW034/// BKN110/// OVC140/// ///TCU 23/16 Q1016 TEMPO TSRA FEW030 BKN090CB BECMG 22012KT
  • 181430Z AUTO 24010KT 9999 FEW049/// OVC100/// ///CB 24/16 Q1016 TEMPO TSRA BECMG NSC
  • 181400Z AUTO 23009KT 200V260 9999 FEW031/// BKN100/// ///CB 24/16 Q1016 BECMG NSC
  • 181330Z AUTO 22011KT 9999 FEW028/// BKN110/// BKN140/// ///CB 24/16 Q1016 BECMG NSC
  • 181300Z AUTO 21011KT 9999 VCTS FEW027/// OVC110/// ///CB 24/16 Q1016 BECMG NSW

Expired Forecast.
No reported NOTAMs for that airfield.



MET'MAP, your aeronautical weather chart ! - Copyright ORBIFLY December 2007 - Disclaimer

ORBIFLY MET'MAP TEAM :

Programming & Development : Alexandra Zaïnal
Concept & Development : Baudouin d'Aumeries
Co-Development & Prog : Marc-Olivier Méhu
Technical & hardware support : Manuel Goepfert

Contact : metmap@orbifly.com




SOURCES & CREDITS :

   NOAA